Time;durP1;ratioP1;P1;durP2;ratioP2;P2;SDS_P1;SDS_P2;PMS_P1;PMS_P2;Temp;Humidity;BMP_temperature;BMP_pressure;BME280_temperature;BME280_humidity;BME280_pressure;Samples;Min_cycle;Max_cycle;Signal;HPM_P1;HPM_P2
2022/05/26 00:00:54;;;;;;;7.15;1.48;;;;;;;;;;5090207;28;20043;-64
2022/05/26 00:03:20;;;;;;;4.82;1.30;;;;;;;;;;5095282;28;20107;-64
2022/05/26 00:05:46;;;;;;;3.50;1.40;;;;;;;;;;5085671;28;20114;-64
2022/05/26 00:08:12;;;;;;;2.72;1.45;;;;;;;;;;5085168;28;20096;-61
2022/05/26 00:10:38;;;;;;;6.07;1.45;;;;;;;;;;5087934;28;20070;-64
2022/05/26 00:13:05;;;;;;;2.42;1.50;;;;;;;;;;5092334;28;20098;-63
2022/05/26 00:15:31;;;;;;;5.85;1.50;;;;;;;;;;5079566;28;20869;-58
2022/05/26 00:17:58;;;;;;;7.57;1.70;;;;;;;;;;5081918;28;20489;-62
2022/05/26 00:20:23;;;;;;;5.47;1.52;;;;;;;;;;5086493;28;20019;-65
2022/05/26 00:22:49;;;;;;;4.78;1.60;;;;;;;;;;5079743;28;20019;-65
2022/05/26 00:25:15;;;;;;;5.90;1.60;;;;;;;;;;5089627;28;20020;-65
2022/05/26 00:27:41;;;;;;;5.05;1.50;;;;;;;;;;5083553;28;20028;-63
2022/05/26 00:30:08;;;;;;;2.63;1.38;;;;;;;;;;5081630;28;20032;-62
2022/05/26 00:32:34;;;;;;;3.88;1.60;;;;;;;;;;5083635;28;20047;-66
2022/05/26 00:35:00;;;;;;;6.85;1.65;;;;;;;;;;5087181;28;20081;-64
2022/05/26 00:37:26;;;;;;;3.35;1.58;;;;;;;;;;5079533;28;20123;-64
2022/05/26 00:39:52;;;;;;;3.08;1.33;;;;;;;;;;5093449;28;20035;-66
2022/05/26 00:42:18;;;;;;;2.10;1.17;;;;;;;;;;5082591;28;20020;-64
2022/05/26 00:44:44;;;;;;;3.97;1.45;;;;;;;;;;5090469;28;20051;-65
2022/05/26 00:47:14;;;;;;;2.85;1.30;;;;;;;;;;5086158;28;20046;-65
2022/05/26 00:49:46;;;;;;;5.10;1.70;;;;;;;;;;5082299;28;20253;-64
2022/05/26 00:52:14;;;;;;;4.13;1.77;;;;;;;;;;5086742;28;20032;-67
2022/05/26 00:54:41;;;;;;;3.33;1.48;;;;;;;;;;5087307;28;20029;-64
2022/05/26 00:57:09;;;;;;;4.82;1.55;;;;;;;;;;5092508;28;20468;-62
2022/05/26 00:59:56;;;;;;;1.92;1.25;;;;;;;;;;5081656;28;20035;-65
2022/05/26 01:02:25;;;;;;;4.60;1.60;;;;;;;;;;5096410;27;20126;-63
2022/05/26 01:04:55;;;;;;;6.43;1.60;;;;;;;;;;5086916;28;20023;-61
2022/05/26 01:07:23;;;;;;;5.38;1.80;;;;;;;;;;5085420;28;20015;-65
2022/05/26 01:09:49;;;;;;;2.88;1.48;;;;;;;;;;5080712;28;20050;-62
2022/05/26 01:12:15;;;;;;;2.85;1.40;;;;;;;;;;5085812;28;20034;-63
2022/05/26 01:14:44;;;;;;;6.18;1.88;;;;;;;;;;5084372;28;20078;-63
2022/05/26 01:17:17;;;;;;;3.55;1.60;;;;;;;;;;5084371;28;20107;-66
2022/05/26 01:20:04;;;;;;;5.07;1.80;;;;;;;;;;5089566;28;20028;-66
2022/05/26 01:22:49;;;;;;;2.30;1.38;;;;;;;;;;5078648;28;20365;-63
2022/05/26 01:25:18;;;;;;;3.85;1.50;;;;;;;;;;5087190;28;20115;-65
2022/05/26 01:27:46;;;;;;;3.63;1.50;;;;;;;;;;5084338;28;20074;-65
2022/05/26 01:30:23;;;;;;;4.95;1.67;;;;;;;;;;5086821;28;20105;-62
2022/05/26 01:32:52;;;;;;;4.00;1.60;;;;;;;;;;5081014;28;20396;-63
2022/05/26 01:35:24;;;;;;;8.10;1.67;;;;;;;;;;5095121;28;20016;-67
2022/05/26 01:38:09;;;;;;;1.98;1.40;;;;;;;;;;5097133;28;20022;-64
2022/05/26 01:40:56;;;;;;;3.40;1.63;;;;;;;;;;5088719;28;20032;-64
2022/05/26 01:43:27;;;;;;;4.78;1.63;;;;;;;;;;5091293;28;20536;-65
2022/05/26 01:46:32;;;;;;;5.05;1.67;;;;;;;;;;5091301;28;20034;-63
2022/05/26 01:49:04;;;;;;;4.20;1.50;;;;;;;;;;5068640;28;20010;-65
2022/05/26 01:51:53;;;;;;;5.00;1.90;;;;;;;;;;5061436;28;20036;-66
2022/05/26 01:54:22;;;;;;;4.25;1.77;;;;;;;;;;5067543;28;20027;-65
2022/05/26 01:56:52;;;;;;;3.65;2.00;;;;;;;;;;5090773;28;20107;-61
2022/05/26 01:59:24;;;;;;;3.58;1.88;;;;;;;;;;5090530;28;20211;-63
2022/05/26 02:01:53;;;;;;;4.07;2.00;;;;;;;;;;5087428;28;20103;-63
2022/05/26 02:04:30;;;;;;;4.38;2.15;;;;;;;;;;5086503;28;20410;-66
2022/05/26 02:07:19;;;;;;;6.38;1.83;;;;;;;;;;5077996;28;20049;-62
2022/05/26 02:09:46;;;;;;;5.47;1.85;;;;;;;;;;5084181;28;20138;-65
2022/05/26 02:12:21;;;;;;;5.80;2.00;;;;;;;;;;5093453;28;20463;-66
2022/05/26 02:15:07;;;;;;;4.35;2.03;;;;;;;;;;5096073;28;20031;-64
2022/05/26 02:17:35;;;;;;;5.15;2.03;;;;;;;;;;5089051;28;20040;-64
2022/05/26 02:20:30;;;;;;;9.13;2.00;;;;;;;;;;5096416;28;20855;-64
2022/05/26 02:23:15;;;;;;;6.40;2.30;;;;;;;;;;5079178;28;20037;-66
2022/05/26 02:25:41;;;;;;;6.05;1.90;;;;;;;;;;5085098;27;20025;-63
2022/05/26 02:28:07;;;;;;;6.03;2.05;;;;;;;;;;5095395;28;21040;-62
2022/05/26 02:30:38;;;;;;;3.97;1.88;;;;;;;;;;5082712;28;20396;-62
2022/05/26 02:33:08;;;;;;;4.35;1.73;;;;;;;;;;5086265;28;20061;-66
2022/05/26 02:35:37;;;;;;;5.32;2.38;;;;;;;;;;5084533;28;20029;-61
2022/05/26 02:38:05;;;;;;;3.58;1.83;;;;;;;;;;5080077;28;20033;-65
2022/05/26 02:40:31;;;;;;;8.85;2.05;;;;;;;;;;5089624;28;20026;-64
2022/05/26 02:43:01;;;;;;;3.90;1.90;;;;;;;;;;5089902;28;20352;-66
2022/05/26 02:45:38;;;;;;;4.95;1.75;;;;;;;;;;5089464;28;20265;-64
2022/05/26 02:48:23;;;;;;;4.30;1.80;;;;;;;;;;5078933;28;20035;-65
2022/05/26 02:51:05;;;;;;;5.20;2.10;;;;;;;;;;5085343;28;20500;-65
2022/05/26 02:53:32;;;;;;;4.88;1.98;;;;;;;;;;5081945;28;20024;-60
2022/05/26 02:56:04;;;;;;;3.97;1.80;;;;;;;;;;5084802;28;20055;-65
2022/05/26 02:58:39;;;;;;;5.90;1.98;;;;;;;;;;5091204;28;20063;-63
2022/05/26 03:01:08;;;;;;;3.33;1.75;;;;;;;;;;5100445;28;20030;-63
2022/05/26 03:03:40;;;;;;;5.00;2.05;;;;;;;;;;5095210;28;20112;-66
2022/05/26 03:06:09;;;;;;;4.53;1.80;;;;;;;;;;5081807;28;20466;-66
2022/05/26 03:08:39;;;;;;;3.45;1.85;;;;;;;;;;5082256;28;20097;-61
2022/05/26 03:11:07;;;;;;;5.63;2.00;;;;;;;;;;5092613;28;20024;-66
2022/05/26 03:13:33;;;;;;;8.98;2.20;;;;;;;;;;5087559;28;20425;-65
2022/05/26 03:15:59;;;;;;;5.45;1.90;;;;;;;;;;5092203;28;20031;-65
2022/05/26 03:18:25;;;;;;;5.55;2.53;;;;;;;;;;5097423;28;20036;-62
2022/05/26 03:20:54;;;;;;;6.43;2.03;;;;;;;;;;5092118;28;20028;-66
2022/05/26 03:23:20;;;;;;;7.82;2.55;;;;;;;;;;5083787;28;20020;-64
2022/05/26 03:25:46;;;;;;;9.43;2.60;;;;;;;;;;5079863;28;20646;-65
2022/05/26 03:28:12;;;;;;;6.20;2.40;;;;;;;;;;5090656;28;20033;-62
2022/05/26 03:30:39;;;;;;;5.55;2.50;;;;;;;;;;5081474;28;20173;-62
2022/05/26 03:33:05;;;;;;;8.88;3.38;;;;;;;;;;5089360;28;20430;-64
2022/05/26 03:41:01;;;;;;;7.15;2.90;;;;;;;;;;5089710;28;20040;-63
2022/05/26 03:43:29;;;;;;;10.32;3.03;;;;;;;;;;5078352;28;20035;-66
2022/05/26 03:45:56;;;;;;;9.52;2.95;;;;;;;;;;5089263;28;20035;-60
2022/05/26 03:48:21;;;;;;;7.05;3.00;;;;;;;;;;5086982;28;20031;-63
2022/05/26 03:50:47;;;;;;;5.63;3.10;;;;;;;;;;5085557;28;20017;-59
2022/05/26 03:53:13;;;;;;;6.90;3.33;;;;;;;;;;5086264;28;20022;-62
2022/05/26 03:55:40;;;;;;;5.53;3.33;;;;;;;;;;5090539;28;20067;-60
2022/05/26 03:58:06;;;;;;;7.13;3.53;;;;;;;;;;5079667;28;20020;-63
2022/05/26 04:00:32;;;;;;;7.22;3.50;;;;;;;;;;5096991;28;20032;-60
2022/05/26 04:02:59;;;;;;;8.27;3.50;;;;;;;;;;5093753;28;20028;-63
2022/05/26 04:05:25;;;;;;;7.10;3.58;;;;;;;;;;5088224;28;20032;-60
2022/05/26 04:07:51;;;;;;;7.50;4.07;;;;;;;;;;5088160;28;20023;-63
2022/05/26 04:10:17;;;;;;;8.60;4.20;;;;;;;;;;5088743;28;20072;-63
2022/05/26 04:12:43;;;;;;;9.07;4.32;;;;;;;;;;5090323;28;20064;-62
2022/05/26 04:15:10;;;;;;;7.53;4.32;;;;;;;;;;5092542;28;20062;-63
2022/05/26 04:17:37;;;;;;;10.60;4.93;;;;;;;;;;5097362;28;20383;-62
2022/05/26 04:20:03;;;;;;;9.65;4.30;;;;;;;;;;5078099;28;20035;-62
2022/05/26 04:22:29;;;;;;;12.32;4.82;;;;;;;;;;5094361;28;20023;-60
2022/05/26 04:24:56;;;;;;;9.93;4.60;;;;;;;;;;5090471;28;20035;-61
2022/05/26 04:27:23;;;;;;;8.98;4.60;;;;;;;;;;5091087;28;20495;-62
2022/05/26 04:29:49;;;;;;;8.57;5.03;;;;;;;;;;5089687;28;20077;-62
2022/05/26 04:32:15;;;;;;;9.23;5.15;;;;;;;;;;5081081;28;20399;-61
2022/05/26 04:34:43;;;;;;;12.43;4.70;;;;;;;;;;5085425;28;20059;-63
2022/05/26 04:37:09;;;;;;;14.75;5.28;;;;;;;;;;5090140;28;20027;-63
2022/05/26 04:39:35;;;;;;;12.50;5.18;;;;;;;;;;5086473;28;20452;-61
2022/05/26 04:42:02;;;;;;;11.95;5.72;;;;;;;;;;5087337;28;20067;-61
2022/05/26 04:44:35;;;;;;;11.30;6.10;;;;;;;;;;5083393;28;20035;-64
2022/05/26 04:47:01;;;;;;;11.15;6.28;;;;;;;;;;5085304;28;20017;-65
2022/05/26 04:49:28;;;;;;;16.60;6.65;;;;;;;;;;5091018;28;20016;-61
2022/05/26 04:51:54;;;;;;;13.77;6.30;;;;;;;;;;5083654;28;20023;-60
2022/05/26 04:54:21;;;;;;;11.40;6.43;;;;;;;;;;5089865;28;20030;-58
2022/05/26 04:56:47;;;;;;;13.68;6.35;;;;;;;;;;5091092;28;20035;-59
2022/05/26 04:59:13;;;;;;;14.75;6.30;;;;;;;;;;5085050;28;20361;-61
2022/05/26 05:01:40;;;;;;;15.25;7.05;;;;;;;;;;5081484;28;20027;-61
2022/05/26 05:04:06;;;;;;;13.63;7.07;;;;;;;;;;5091521;28;20025;-61
2022/05/26 05:06:32;;;;;;;12.50;6.43;;;;;;;;;;5087857;28;20024;-61
2022/05/26 05:08:58;;;;;;;17.60;7.07;;;;;;;;;;5092992;28;20498;-61
2022/05/26 05:11:24;;;;;;;12.73;7.18;;;;;;;;;;5081030;28;20031;-61
2022/05/26 05:13:50;;;;;;;18.70;7.38;;;;;;;;;;5084508;28;20035;-61
2022/05/26 05:16:19;;;;;;;13.90;7.05;;;;;;;;;;5078336;28;20099;-61
2022/05/26 05:18:46;;;;;;;15.20;7.25;;;;;;;;;;5089475;28;20117;-59
2022/05/26 05:21:13;;;;;;;16.13;7.10;;;;;;;;;;5091284;28;20399;-61
2022/05/26 05:23:41;;;;;;;17.23;7.95;;;;;;;;;;5085178;28;20037;-59
2022/05/26 05:26:08;;;;;;;17.83;7.97;;;;;;;;;;5088646;28;20020;-60
2022/05/26 05:28:36;;;;;;;20.75;8.60;;;;;;;;;;5076083;28;20109;-61
2022/05/26 05:31:04;;;;;;;20.88;8.15;;;;;;;;;;5086970;28;20029;-61
2022/05/26 05:33:32;;;;;;;19.00;8.80;;;;;;;;;;5080591;28;20293;-61
2022/05/26 05:36:02;;;;;;;18.77;8.30;;;;;;;;;;5093385;28;20525;-61
2022/05/26 05:38:29;;;;;;;15.20;8.55;;;;;;;;;;5082255;28;20519;-58
2022/05/26 05:40:55;;;;;;;22.42;8.98;;;;;;;;;;5091292;28;20529;-59
2022/05/26 05:43:21;;;;;;;19.55;8.82;;;;;;;;;;5087462;28;20085;-60
2022/05/26 05:45:47;;;;;;;18.85;8.50;;;;;;;;;;5083029;28;20032;-61
2022/05/26 05:48:13;;;;;;;18.40;8.93;;;;;;;;;;5084108;28;20036;-61
2022/05/26 05:50:39;;;;;;;22.30;9.95;;;;;;;;;;5086028;28;20020;-62
2022/05/26 05:53:05;;;;;;;18.75;8.77;;;;;;;;;;5077803;28;20028;-62
2022/05/26 05:55:32;;;;;;;19.00;9.13;;;;;;;;;;5095711;28;20076;-61
2022/05/26 05:57:58;;;;;;;16.38;8.65;;;;;;;;;;5089141;28;20035;-60
2022/05/26 06:00:24;;;;;;;17.95;9.35;;;;;;;;;;5077329;28;20027;-59
2022/05/26 06:02:50;;;;;;;24.35;9.65;;;;;;;;;;5083283;28;20472;-59
2022/05/26 06:05:16;;;;;;;18.95;8.95;;;;;;;;;;5074005;28;20032;-61
2022/05/26 06:07:42;;;;;;;19.65;9.95;;;;;;;;;;5083513;28;20376;-60
2022/05/26 06:10:10;;;;;;;25.20;10.52;;;;;;;;;;5076140;28;20032;-60
2022/05/26 06:12:36;;;;;;;21.80;10.52;;;;;;;;;;5087074;28;20024;-61
2022/05/26 06:15:03;;;;;;;19.67;10.75;;;;;;;;;;5085551;28;20502;-59
2022/05/26 06:17:29;;;;;;;20.85;10.43;;;;;;;;;;5085183;28;20393;-60
2022/05/26 06:19:55;;;;;;;23.92;11.15;;;;;;;;;;5087224;27;20531;-58
2022/05/26 06:22:21;;;;;;;28.23;12.07;;;;;;;;;;5089465;28;20031;-59
2022/05/26 06:24:48;;;;;;;25.77;11.95;;;;;;;;;;5081332;28;20467;-59
2022/05/26 06:30:01;;;;;;;22.67;12.07;;;;;;;;;;5095445;28;20072;-62
2022/05/26 06:38:00;;;;;;;25.55;12.77;;;;;;;;;;5082844;28;20501;-62
2022/05/26 06:40:28;;;;;;;26.90;12.25;;;;;;;;;;5090957;28;20032;-61
2022/05/26 06:42:55;;;;;;;23.45;12.10;;;;;;;;;;5092336;28;20030;-60
2022/05/26 06:45:22;;;;;;;25.42;12.52;;;;;;;;;;5094549;28;20050;-59
2022/05/26 06:47:48;;;;;;;25.42;12.88;;;;;;;;;;5094482;28;20096;-60
2022/05/26 06:50:14;;;;;;;24.10;12.73;;;;;;;;;;5089927;28;20032;-59
2022/05/26 06:52:40;;;;;;;21.95;12.32;;;;;;;;;;5086316;28;20076;-60
2022/05/26 06:55:07;;;;;;;25.00;12.45;;;;;;;;;;5087571;28;20080;-59
2022/05/26 06:57:33;;;;;;;23.50;13.70;;;;;;;;;;5092635;28;20031;-61
2022/05/26 07:00:02;;;;;;;23.60;13.07;;;;;;;;;;5089130;28;20100;-62
2022/05/26 07:02:29;;;;;;;27.10;12.65;;;;;;;;;;5096760;28;20396;-62
2022/05/26 07:04:55;;;;;;;25.38;12.23;;;;;;;;;;5090147;28;20507;-62
2022/05/26 07:07:21;;;;;;;22.58;11.95;;;;;;;;;;5090914;28;20028;-61
2022/05/26 07:09:47;;;;;;;24.00;12.25;;;;;;;;;;5082947;28;20028;-62
2022/05/26 07:12:13;;;;;;;23.42;11.07;;;;;;;;;;5090649;28;20703;-61
2022/05/26 07:14:39;;;;;;;23.38;12.38;;;;;;;;;;5079449;28;20111;-59
2022/05/26 07:17:05;;;;;;;19.00;11.55;;;;;;;;;;5081540;28;20159;-62
2022/05/26 07:19:35;;;;;;;19.00;11.63;;;;;;;;;;5092491;28;20028;-61
2022/05/26 07:22:01;;;;;;;25.48;12.50;;;;;;;;;;5089945;28;20028;-61
2022/05/26 07:24:27;;;;;;;17.95;11.00;;;;;;;;;;5081242;28;20016;-61
2022/05/26 07:26:53;;;;;;;18.90;11.95;;;;;;;;;;5090768;28;20660;-62
2022/05/26 07:29:19;;;;;;;23.40;12.15;;;;;;;;;;5094730;28;20019;-62
2022/05/26 07:31:46;;;;;;;20.98;12.10;;;;;;;;;;5080831;28;20028;-57
2022/05/26 07:34:12;;;;;;;19.83;12.00;;;;;;;;;;5083991;28;20051;-61
2022/05/26 07:42:10;;;;;;;54.20;34.53;;;;;;;;;;5089147;28;20090;-56
2022/05/26 07:44:37;;;;;;;21.50;11.20;;;;;;;;;;5090875;28;20056;-61
2022/05/26 07:47:04;;;;;;;21.45;11.93;;;;;;;;;;5085164;28;20024;-60
2022/05/26 07:49:30;;;;;;;22.05;11.20;;;;;;;;;;5087223;28;20031;-61
2022/05/26 07:51:57;;;;;;;20.83;10.57;;;;;;;;;;5083218;28;20036;-60
2022/05/26 07:54:24;;;;;;;18.33;10.82;;;;;;;;;;5092839;28;20430;-59
2022/05/26 07:56:50;;;;;;;24.77;11.15;;;;;;;;;;5085911;28;20059;-61
2022/05/26 07:59:16;;;;;;;21.25;11.27;;;;;;;;;;5085682;28;20035;-61
2022/05/26 08:01:42;;;;;;;18.17;10.90;;;;;;;;;;5085302;28;20038;-61
2022/05/26 08:04:08;;;;;;;17.48;9.80;;;;;;;;;;5087855;28;20054;-59
2022/05/26 08:06:35;;;;;;;16.90;9.98;;;;;;;;;;5081407;28;20200;-61
2022/05/26 08:09:01;;;;;;;16.80;11.02;;;;;;;;;;5082373;28;20464;-61
2022/05/26 08:11:27;;;;;;;20.58;10.73;;;;;;;;;;5085808;28;20073;-61
2022/05/26 08:13:53;;;;;;;19.30;10.90;;;;;;;;;;5081907;28;20032;-61
2022/05/26 08:16:19;;;;;;;23.65;10.80;;;;;;;;;;5083470;28;20024;-61
2022/05/26 08:18:45;;;;;;;18.50;9.77;;;;;;;;;;5086416;28;20028;-61
2022/05/26 08:21:17;;;;;;;19.77;10.20;;;;;;;;;;5086449;28;20024;-59
2022/05/26 08:23:43;;;;;;;20.10;10.50;;;;;;;;;;5089001;28;20123;-61
2022/05/26 08:26:09;;;;;;;21.75;11.20;;;;;;;;;;5088478;28;20050;-62
2022/05/26 08:28:35;;;;;;;19.80;10.55;;;;;;;;;;5081424;28;20035;-58
2022/05/26 08:31:01;;;;;;;22.92;11.77;;;;;;;;;;5085475;28;20387;-60
2022/05/26 08:33:28;;;;;;;23.08;10.93;;;;;;;;;;5092215;28;20713;-59
2022/05/26 08:36:08;;;;;;;15.68;9.27;;;;;;;;;;5076712;28;20082;-62
2022/05/26 08:38:35;;;;;;;20.98;9.63;;;;;;;;;;5084517;28;20030;-59
2022/05/26 08:41:02;;;;;;;18.17;10.35;;;;;;;;;;5090660;28;20055;-61
2022/05/26 08:43:37;;;;;;;22.67;15.00;;;;;;;;;;5083449;28;20111;-65
2022/05/26 08:46:06;;;;;;;19.17;10.98;;;;;;;;;;5080827;28;20047;-62
2022/05/26 08:48:35;;;;;;;18.90;9.65;;;;;;;;;;5087573;28;20058;-62
2022/05/26 08:51:02;;;;;;;20.23;9.95;;;;;;;;;;5081529;28;20048;-61
2022/05/26 08:53:33;;;;;;;17.17;10.40;;;;;;;;;;5083898;28;20024;-61
2022/05/26 08:56:00;;;;;;;15.55;9.52;;;;;;;;;;5093668;28;20110;-61
2022/05/26 08:58:28;;;;;;;14.85;8.93;;;;;;;;;;5078903;28;20494;-61
2022/05/26 09:00:54;;;;;;;17.00;9.20;;;;;;;;;;5085950;28;20110;-62
2022/05/26 09:03:23;;;;;;;16.75;9.80;;;;;;;;;;5086160;28;20033;-62
2022/05/26 09:05:52;;;;;;;17.42;9.10;;;;;;;;;;5080428;28;20114;-59
2022/05/26 09:13:57;;;;;;;13.48;6.45;;;;;;;;;;5086105;28;20573;-62
2022/05/26 09:16:23;;;;;;;16.40;8.32;;;;;;;;;;5087879;28;20032;-61
2022/05/26 09:19:09;;;;;;;13.13;7.22;;;;;;;;;;5085343;28;20672;-61
2022/05/26 09:21:36;;;;;;;13.55;6.18;;;;;;;;;;5090834;28;20327;-63
2022/05/26 09:24:24;;;;;;;15.63;6.85;;;;;;;;;;5088018;28;20111;-60
2022/05/26 09:26:57;;;;;;;11.75;6.22;;;;;;;;;;5077000;28;20025;-63
2022/05/26 09:29:23;;;;;;;;;;;;;;;;;;5084844;28;20081;-62
2022/05/26 09:31:50;;;;;;;11.73;6.00;;;;;;;;;;5083505;28;19911;-62
2022/05/26 09:34:21;;;;;;;12.57;5.55;;;;;;;;;;5080562;28;20043;-63
2022/05/26 09:36:49;;;;;;;11.60;5.72;;;;;;;;;;5082225;28;20021;-62
2022/05/26 09:39:20;;;;;;;12.82;5.65;;;;;;;;;;5083352;28;20027;-60
2022/05/26 09:41:49;;;;;;;13.43;4.85;;;;;;;;;;5081810;28;20020;-60
2022/05/26 09:44:28;;;;;;;9.70;4.65;;;;;;;;;;5080804;28;20431;-61
2022/05/26 09:46:55;;;;;;;11.80;5.00;;;;;;;;;;5084361;28;20547;-61
2022/05/26 09:49:23;;;;;;;8.07;4.20;;;;;;;;;;5084705;28;20016;-62
2022/05/26 09:51:49;;;;;;;12.90;4.95;;;;;;;;;;5078036;28;20086;-62
2022/05/26 09:54:24;;;;;;;9.32;4.18;;;;;;;;;;5084774;28;20122;-60
2022/05/26 09:56:50;;;;;;;14.25;4.40;;;;;;;;;;5085063;28;20050;-62
2022/05/26 09:59:38;;;;;;;8.63;4.28;;;;;;;;;;5088260;28;20028;-61
2022/05/26 10:02:14;;;;;;;8.88;4.45;;;;;;;;;;5085043;28;20051;-61
2022/05/26 10:04:57;;;;;;;9.52;4.28;;;;;;;;;;5085500;28;20025;-63
2022/05/26 10:07:23;;;;;;;8.23;3.92;;;;;;;;;;5090080;28;20048;-60
2022/05/26 10:09:57;;;;;;;11.07;4.35;;;;;;;;;;5087338;28;20515;-62
2022/05/26 10:12:23;;;;;;;12.65;4.28;;;;;;;;;;5085566;28;20028;-63
2022/05/26 10:14:54;;;;;;;9.65;4.30;;;;;;;;;;5089730;28;20031;-61
2022/05/26 10:17:29;;;;;;;14.20;3.92;;;;;;;;;;5086386;28;20024;-63
2022/05/26 10:20:10;;;;;;;9.73;3.78;;;;;;;;;;5091875;28;20558;-61
2022/05/26 10:22:47;;;;;;;11.65;3.80;;;;;;;;;;5084150;28;20242;-63
2022/05/26 10:25:24;;;;;;;9.88;4.07;;;;;;;;;;5098945;28;20628;-62
2022/05/26 10:28:02;;;;;;;12.30;4.22;;;;;;;;;;5099852;28;20489;-63
2022/05/26 10:30:46;;;;;;;11.38;3.65;;;;;;;;;;5083456;28;21366;-62
2022/05/26 10:33:31;;;;;;;11.60;3.78;;;;;;;;;;5083935;28;20058;-62
2022/05/26 10:36:03;;;;;;;7.18;3.42;;;;;;;;;;5082825;28;20530;-62
2022/05/26 10:38:43;;;;;;;9.32;3.75;;;;;;;;;;5086754;28;20059;-62
2022/05/26 10:41:19;;;;;;;8.23;3.55;;;;;;;;;;5086691;28;20028;-63
2022/05/26 10:43:53;;;;;;;10.07;3.60;;;;;;;;;;5090730;28;20028;-63
2022/05/26 10:46:20;;;;;;;9.90;3.90;;;;;;;;;;5081121;28;20602;-62
2022/05/26 10:48:54;;;;;;;9.25;3.25;;;;;;;;;;5091328;28;20109;-64
2022/05/26 10:51:20;;;;;;;7.68;3.17;;;;;;;;;;5081330;28;20105;-63
2022/05/26 10:53:50;;;;;;;6.90;3.00;;;;;;;;;;5091083;28;20451;-63
2022/05/26 10:56:16;;;;;;;7.90;3.00;;;;;;;;;;5090554;28;20028;-62
2022/05/26 10:59:09;;;;;;;9.77;3.80;;;;;;;;;;5084470;28;20047;-61
2022/05/26 11:01:37;;;;;;;11.95;3.33;;;;;;;;;;5068519;28;20127;-62
2022/05/26 11:04:08;;;;;;;8.05;3.63;;;;;;;;;;5083331;28;20038;-64
2022/05/26 11:06:36;;;;;;;7.45;3.35;;;;;;;;;;5085243;28;20016;-63
2022/05/26 11:09:17;;;;;;;5.55;2.63;;;;;;;;;;5085938;28;20020;-63
2022/05/26 11:11:48;;;;;;;7.53;2.95;;;;;;;;;;5089279;28;20020;-64
2022/05/26 11:17:22;;;;;;;6.88;2.80;;;;;;;;;;5085581;28;20407;-62
2022/05/26 11:19:50;;;;;;;7.57;2.97;;;;;;;;;;5080333;28;20028;-61
2022/05/26 11:22:17;;;;;;;5.07;2.60;;;;;;;;;;5077895;28;20056;-60
2022/05/26 11:24:50;;;;;;;7.00;3.25;;;;;;;;;;5083199;28;20121;-63
2022/05/26 11:27:37;;;;;;;10.27;3.38;;;;;;;;;;5089580;28;20024;-62
2022/05/26 11:36:08;;;;;;;6.70;3.38;;;;;;;;;;5089592;28;20050;-62
2022/05/26 11:38:34;;;;;;;8.13;3.47;;;;;;;;;;5091926;28;20512;-62
2022/05/26 11:41:04;;;;;;;8.23;3.35;;;;;;;;;;5085373;28;20028;-61
2022/05/26 11:43:48;;;;;;;6.95;3.00;;;;;;;;;;5094082;28;20118;-63
2022/05/26 11:46:33;;;;;;;8.07;3.33;;;;;;;;;;5082728;28;20063;-62
2022/05/26 11:48:59;;;;;;;9.20;3.30;;;;;;;;;;5082453;28;20020;-62
2022/05/26 11:51:27;;;;;;;9.07;3.33;;;;;;;;;;5086153;28;20077;-62
2022/05/26 11:53:54;;;;;;;6.88;3.13;;;;;;;;;;5087144;28;20021;-63
2022/05/26 11:56:26;;;;;;;7.40;2.95;;;;;;;;;;5087883;28;20080;-60
2022/05/26 11:59:12;;;;;;;5.55;2.92;;;;;;;;;;5085433;28;20081;-63
2022/05/26 12:01:38;;;;;;;5.40;3.08;;;;;;;;;;5088022;28;20050;-61
2022/05/26 12:04:07;;;;;;;6.10;3.30;;;;;;;;;;5088376;28;20024;-62
2022/05/26 12:06:35;;;;;;;6.45;2.65;;;;;;;;;;5084535;28;20070;-62
2022/05/26 12:09:03;;;;;;;6.35;2.80;;;;;;;;;;5086070;28;20024;-59
2022/05/26 12:11:51;;;;;;;6.50;2.90;;;;;;;;;;5087699;28;20677;-62
2022/05/26 12:14:22;;;;;;;6.65;3.10;;;;;;;;;;5083262;28;20311;-62
2022/05/26 12:16:48;;;;;;;6.88;2.95;;;;;;;;;;5087271;28;20466;-62
2022/05/26 12:19:33;;;;;;;7.65;3.28;;;;;;;;;;5085924;28;20028;-63
2022/05/26 12:22:13;;;;;;;6.22;2.70;;;;;;;;;;5091153;28;20023;-62
2022/05/26 12:24:39;;;;;;;7.68;2.90;;;;;;;;;;5083184;28;20048;-59
2022/05/26 12:27:05;;;;;;;7.20;2.50;;;;;;;;;;5088125;28;20102;-62
2022/05/26 12:30:01;;;;;;;6.60;2.25;;;;;;;;;;5078418;28;20037;-63
2022/05/26 12:32:32;;;;;;;14.80;3.50;;;;;;;;;;5081656;28;20043;-63
2022/05/26 12:35:13;;;;;;;6.65;3.80;;;;;;;;;;5080717;28;20028;-62
2022/05/26 12:37:55;;;;;;;5.97;2.85;;;;;;;;;;5092750;28;20173;-62
2022/05/26 12:40:42;;;;;;;6.28;3.10;;;;;;;;;;5083668;28;20035;-62
2022/05/26 12:43:31;;;;;;;7.63;2.80;;;;;;;;;;5092254;28;20447;-63
2022/05/26 12:46:00;;;;;;;10.32;3.22;;;;;;;;;;5092661;28;20055;-62
2022/05/26 12:48:26;;;;;;;4.28;2.28;;;;;;;;;;5080886;28;20615;-59
2022/05/26 12:50:52;;;;;;;5.07;2.53;;;;;;;;;;5090530;28;20020;-62
2022/05/26 12:53:27;;;;;;;8.88;2.58;;;;;;;;;;5080789;28;20449;-60
2022/05/26 12:55:59;;;;;;;7.10;2.45;;;;;;;;;;5090417;28;20027;-62
2022/05/26 12:58:25;;;;;;;10.00;3.22;;;;;;;;;;5085363;28;20103;-60
2022/05/26 13:00:56;;;;;;;8.20;2.60;;;;;;;;;;5088515;28;20583;-60
2022/05/26 13:03:28;;;;;;;6.05;2.58;;;;;;;;;;5087398;28;20071;-62
2022/05/26 13:06:00;;;;;;;5.63;2.28;;;;;;;;;;5080370;28;20499;-62
2022/05/26 13:08:27;;;;;;;6.73;2.17;;;;;;;;;;5075912;28;20742;-60
2022/05/26 13:10:55;;;;;;;7.03;2.70;;;;;;;;;;5087210;28;20432;-61
2022/05/26 13:13:30;;;;;;;9.80;2.80;;;;;;;;;;5092727;28;20030;-60
2022/05/26 13:16:15;;;;;;;10.07;2.58;;;;;;;;;;5082171;28;20719;-62
2022/05/26 13:18:43;;;;;;;7.60;2.53;;;;;;;;;;5088509;28;20036;-63
2022/05/26 13:21:16;;;;;;;7.97;2.45;;;;;;;;;;5090837;28;20024;-62
2022/05/26 13:23:42;;;;;;;6.93;2.20;;;;;;;;;;5078935;28;20047;-60
2022/05/26 13:26:08;;;;;;;8.07;2.58;;;;;;;;;;5084609;28;20028;-57
2022/05/26 13:28:35;;;;;;;9.80;2.65;;;;;;;;;;5091741;28;20031;-60
2022/05/26 13:33:50;;;;;;;8.40;2.67;;;;;;;;;;5075262;28;20043;-62
2022/05/26 13:36:20;;;;;;;7.85;2.70;;;;;;;;;;5087087;28;20656;-61
2022/05/26 13:38:47;;;;;;;8.55;2.60;;;;;;;;;;5085288;28;20487;-60
2022/05/26 13:41:19;;;;;;;7.18;2.35;;;;;;;;;;5089802;28;20357;-60
2022/05/26 13:43:45;;;;;;;6.72;2.35;;;;;;;;;;5092309;28;20066;-63
2022/05/26 13:46:14;;;;;;;8.98;2.65;;;;;;;;;;5087268;28;20028;-62
2022/05/26 13:48:43;;;;;;;7.75;2.30;;;;;;;;;;5084131;28;20108;-59
2022/05/26 13:51:17;;;;;;;8.18;2.60;;;;;;;;;;5085487;28;20068;-63
2022/05/26 13:53:45;;;;;;;7.95;2.40;;;;;;;;;;5080640;28;20023;-63
2022/05/26 13:56:15;;;;;;;6.85;2.50;;;;;;;;;;5080876;28;20036;-63
2022/05/26 13:58:44;;;;;;;5.65;2.60;;;;;;;;;;5084551;28;20035;-61
2022/05/26 14:01:12;;;;;;;8.77;2.40;;;;;;;;;;5082353;28;20092;-62
2022/05/26 14:03:39;;;;;;;7.15;2.70;;;;;;;;;;5081426;28;20460;-60
2022/05/26 14:06:05;;;;;;;7.55;2.30;;;;;;;;;;5089839;28;20479;-63
2022/05/26 14:08:31;;;;;;;7.15;2.30;;;;;;;;;;5099452;28;20101;-63
2022/05/26 14:10:58;;;;;;;7.38;2.30;;;;;;;;;;5095044;28;20028;-62
2022/05/26 14:13:27;;;;;;;10.57;2.30;;;;;;;;;;5088866;28;20028;-63
2022/05/26 14:16:17;;;;;;;8.02;2.50;;;;;;;;;;5086210;28;20711;-63
2022/05/26 14:18:45;;;;;;;6.05;2.28;;;;;;;;;;5085392;28;20507;-63
2022/05/26 14:21:13;;;;;;;8.60;3.25;;;;;;;;;;5077096;28;20491;-62
2022/05/26 14:24:00;;;;;;;5.22;2.45;;;;;;;;;;5073510;28;20489;-59
2022/05/26 14:26:39;;;;;;;9.55;2.60;;;;;;;;;;5080440;28;20128;-62
2022/05/26 14:29:17;;;;;;;5.90;2.45;;;;;;;;;;5070153;28;20036;-61
2022/05/26 14:32:02;;;;;;;7.40;2.97;;;;;;;;;;5081616;28;20035;-62
2022/05/26 14:34:33;;;;;;;8.75;2.60;;;;;;;;;;5079886;28;20032;-62
2022/05/26 14:36:59;;;;;;;7.55;2.65;;;;;;;;;;5085662;28;20780;-62
2022/05/26 14:39:25;;;;;;;7.47;2.28;;;;;;;;;;5085094;28;20048;-63
2022/05/26 14:41:52;;;;;;;5.50;2.28;;;;;;;;;;5084692;28;20509;-62
2022/05/26 14:44:18;;;;;;;8.52;2.50;;;;;;;;;;5091606;28;20012;-62
2022/05/26 14:46:45;;;;;;;9.55;2.38;;;;;;;;;;5078644;27;20025;-60
2022/05/26 14:49:11;;;;;;;6.50;2.72;;;;;;;;;;5087260;28;20016;-62
2022/05/26 14:51:37;;;;;;;10.55;2.75;;;;;;;;;;5083055;28;20025;-61
2022/05/26 14:56:48;;;;;;;7.15;2.80;;;;;;;;;;5092576;28;20029;-60
2022/05/26 14:59:14;;;;;;;7.30;2.20;;;;;;;;;;5085317;28;20026;-63
2022/05/26 15:01:41;;;;;;;7.32;2.67;;;;;;;;;;5085617;28;20038;-63
2022/05/26 15:04:07;;;;;;;7.38;2.03;;;;;;;;;;5083215;28;20585;-63
2022/05/26 15:06:39;;;;;;;9.88;2.10;;;;;;;;;;5079137;28;20020;-61
2022/05/26 15:09:09;;;;;;;6.07;2.00;;;;;;;;;;5086744;28;20035;-60
2022/05/26 15:11:35;;;;;;;9.10;2.30;;;;;;;;;;5088587;28;20024;-61
2022/05/26 15:14:01;;;;;;;6.50;1.83;;;;;;;;;;5090977;28;20032;-62
2022/05/26 15:16:27;;;;;;;7.63;2.20;;;;;;;;;;5083001;28;20073;-62
2022/05/26 15:18:54;;;;;;;7.40;1.90;;;;;;;;;;5081739;28;20032;-63
2022/05/26 15:21:20;;;;;;;8.32;1.90;;;;;;;;;;5086502;28;20032;-60
2022/05/26 15:23:46;;;;;;;6.05;2.00;;;;;;;;;;5092335;28;20032;-61
2022/05/26 15:26:15;;;;;;;5.18;1.80;;;;;;;;;;5086330;28;20024;-62
2022/05/26 15:28:46;;;;;;;4.85;1.65;;;;;;;;;;5082781;28;20032;-60
2022/05/26 15:31:12;;;;;;;7.50;2.10;;;;;;;;;;5096190;28;20016;-60